Maloca, Brazil
Current Conditions -  °F | °C
As of 5:00 PM on Monday 24 Nov 2014 (Local Time) from SBSN Reporting Station
Few Clouds Few Clouds  
Wind Chill: 33°   Ceiling: Unl
Heat Index: 37°   Visibility: 6mi
Dew Point: 22°   Wind: 9mph
Humidity: 52%   Direction: 90°E
Pressure: 29.74"   Gusts: NA
Location:  0.64°N, 55.97°W
Report Text: SBSN 242000Z 09008KT 9999 FEW023 33/22 Q1007
Loading
Personal Weather Stations






























Interactive Weather Map New forecast layout! Learn more

10-Day Weather Forecast

Advertisements
Track Severe Weather on mobile